Ocontofalls, Wisconsin
Current Conditions -  °F | °C
As of 9:15 PM on Monday 20 Oct 2014 (Local Time) from KOCQ Reporting Station
Overcast Overcast  
Wind Chill: 43°   Ceiling: 6000
Heat Index: 47°   Visibility: 10mi
Dew Point: 41°   Wind: 7mph
Humidity: 81%   Direction: 340°NNW
Pressure: 30.01"   Gusts: NA
Location:  44.8816°N, 88.1735°W
Report Text: KOCQ 210215Z AUTO 34006KT 10SM OVC060 08/05 A3001 RMK AO1 T00820051
Loading
Personal Weather Stations






























Interactive Weather Map
Tropical Storm Tracking
New forecast layout! Learn more

10-Day Weather Forecast

Advertisements
Track Severe Weather on mobile